Waite Park, MN (56387)

3:02 PM CDT on August 01, 2015 (GMT -0500)
Southwest St Cloud | | Change Station
CLOSE
Current Station
Personal Weather Station
Location: St Cloud, MN
Elevation: 1080 ft
Nearby Weather Stations

Elev 1080 ft 45.54 °N, 94.19 °W | Updated 4 seconds ago

Clear
Clear
90.1 °F
Feels Like 86 °F
N
6.1
Wind Variable Wind from SW
Gusts 6.1 mph

Today
High -- | Low -- °F
--% Chance of Precip.
Yesterday
High -- | Low -- °F
Precip. -- in
6:00 AM 8:45 PM
Full, 97% visible
Pressure 29.91 in
Visibility 10.0 miles
Clouds Few 12000 ft
Heat Index 86 °F
Dew Point 26 °F
Humidity 10%
Rainfall 0.00 in
Snow Depth Not available.
UV 8 out of 12
Pollen 6.60 out of 12
Air Quality Not available.
Flu Activity Not available.
METAR KSTC 011953Z 20007KT 170V250 10SM FEW120 29/13 A2990 RMK AO2 SLP127 T02940128

More Conditions Fewer Conditions

Pressure 29.91 in
Visibility 10.0 miles
Clouds Few 12000 ft
Heat Index 86 °F
Dew Point 26 °F
Humidity 10%
Rainfall 0.00 in
Snow Depth Not available.
UV 8 out of 12
Pollen 6.60 out of 12
Air Quality Not available.
Flu Activity Not available.
METAR KSTC 011953Z 20007KT 170V250 10SM FEW120 29/13 A2990 RMK AO2 SLP127 T02940128

More Conditions Fewer Conditions

10-Day Weather Forecast

×

Almanac

Astronomy

Aug. 01, 2015 Rise Set
Actual Time
Civil Twilight
Nautical Twilight
Astronomical Twilight
Moon
Length of Visible Light
Length of Day
Tomorrow will be .
, % of the Moon is Illuminated

Today's Extremes

State Highs State Lows

Community

WunderPhotos

Upload Photos

1,843,043 photos uploaded!

WunderBlogs® & News

Nearby

Air Quality

  Air Quality AQ Index Pollutant
Not available.

Snow Depth

Station Depth Elevation

Earthquake Activity

City Distance Mag. Time & Date
Minimum magnitude displayed is 2.5.

Coastal Water Temperatures

Place Temperature

Stations

Nearby Weather Stations

Station Location Temp. Windchill Dew Point Humidity Wind Precip. Elev Updated Type